Terminal Aerodrome Forecast
Issued by NWS

Home | Current Version | Previous Version | Text Only | Print | Product List | Glossary On
Versions: 1 2 3 4 5 6 7 8 9 10 11 12 13 14 15
000
FTUS41 KBTV 252006 AAA
TAFRUT
TAF AMD
KRUT 252006Z 2520/2618 13015G25KT P6SM VCSH OVC030
     FM252100 10025G41KT 6SM BR VCSH OVC040
     FM260500 10014G22KT 3SM -RA BR OVC030
     FM260700 09009KT 6SM BR VCSH OVC035
     FM261200 VRB03KT P6SM VCSH OVC015=

USA.gov is the U.S. government's official web portal to all federal, state and local government web resources and services.